sensor_id;sensor_type;location;lat;lon;timestamp;pressure;altitude;pressure_sealevel;temperature;humidity
1480;BME280;732;51.698;4.886;2022-10-26T00:01:23;101463.78;;;13.51;100.00
1480;BME280;732;51.698;4.886;2022-10-26T00:03:55;101401.94;;;13.16;100.00
1480;BME280;732;51.698;4.886;2022-10-26T00:06:25;101422.41;;;13.36;100.00
1480;BME280;732;51.698;4.886;2022-10-26T00:08:57;101470.25;;;13.71;100.00
1480;BME280;732;51.698;4.886;2022-10-26T00:11:25;101468.59;;;13.79;100.00
1480;BME280;732;51.698;4.886;2022-10-26T00:13:53;101469.38;;;13.74;100.00
1480;BME280;732;51.698;4.886;2022-10-26T00:16:25;101454.44;;;13.70;100.00
1480;BME280;732;51.698;4.886;2022-10-26T00:18:54;101444.84;;;13.72;100.00
1480;BME280;732;51.698;4.886;2022-10-26T00:21:22;101470.38;;;13.79;100.00
1480;BME280;732;51.698;4.886;2022-10-26T00:23:51;101466.06;;;13.84;100.00
1480;BME280;732;51.698;4.886;2022-10-26T00:26:20;101467.06;;;13.93;100.00
1480;BME280;732;51.698;4.886;2022-10-26T00:28:52;101460.91;;;13.91;100.00
1480;BME280;732;51.698;4.886;2022-10-26T00:31:21;101465.34;;;13.94;100.00
1480;BME280;732;51.698;4.886;2022-10-26T00:33:52;101437.06;;;13.78;100.00
1480;BME280;732;51.698;4.886;2022-10-26T00:36:21;101451.31;;;13.95;100.00
1480;BME280;732;51.698;4.886;2022-10-26T00:38:50;101445.13;;;13.90;100.00
1480;BME280;732;51.698;4.886;2022-10-26T00:41:23;101416.91;;;13.77;100.00
1480;BME280;732;51.698;4.886;2022-10-26T00:43:53;101441.81;;;14.04;100.00
1480;BME280;732;51.698;4.886;2022-10-26T00:46:25;101395.97;;;13.83;100.00
1480;BME280;732;51.698;4.886;2022-10-26T00:48:58;101352.78;;;13.64;100.00
1480;BME280;732;51.698;4.886;2022-10-26T00:51:31;101449.03;;;14.19;100.00
1480;BME280;732;51.698;4.886;2022-10-26T00:54:04;101350.19;;;13.66;100.00
1480;BME280;732;51.698;4.886;2022-10-26T00:56:35;101442.84;;;14.17;100.00
1480;BME280;732;51.698;4.886;2022-10-26T00:59:07;101447.28;;;14.21;100.00
1480;BME280;732;51.698;4.886;2022-10-26T01:01:39;101442.06;;;14.24;100.00
1480;BME280;732;51.698;4.886;2022-10-26T01:04:08;101417.41;;;14.13;100.00
1480;BME280;732;51.698;4.886;2022-10-26T01:06:37;101432.44;;;14.24;100.00
1480;BME280;732;51.698;4.886;2022-10-26T01:09:07;101393.63;;;14.04;100.00
1480;BME280;732;51.698;4.886;2022-10-26T01:11:38;101439.56;;;14.31;100.00
1480;BME280;732;51.698;4.886;2022-10-26T01:14:09;101445.72;;;14.33;100.00
1480;BME280;732;51.698;4.886;2022-10-26T01:16:52;101428.91;;;14.24;100.00
1480;BME280;732;51.698;4.886;2022-10-26T01:20:13;101429.94;;;14.33;100.00
1480;BME280;732;51.698;4.886;2022-10-26T01:22:51;101385.75;;;14.05;100.00
1480;BME280;732;51.698;4.886;2022-10-26T01:25:40;101434.34;;;14.33;100.00
1480;BME280;732;51.698;4.886;2022-10-26T01:28:29;101433.50;;;14.37;100.00
1480;BME280;732;51.698;4.886;2022-10-26T01:31:02;101420.28;;;14.29;100.00
1480;BME280;732;51.698;4.886;2022-10-26T01:33:38;101395.53;;;14.14;100.00
1480;BME280;732;51.698;4.886;2022-10-26T01:36:14;101345.22;;;13.88;100.00
1480;BME280;732;51.698;4.886;2022-10-26T01:38:53;101411.59;;;14.37;100.00
1480;BME280;732;51.698;4.886;2022-10-26T01:41:29;101417.72;;;14.37;100.00
1480;BME280;732;51.698;4.886;2022-10-26T01:44:02;101414.31;;;14.43;100.00
1480;BME280;732;51.698;4.886;2022-10-26T01:46:36;101411.63;;;14.41;100.00
1480;BME280;732;51.698;4.886;2022-10-26T01:49:09;101406.47;;;14.49;100.00
1480;BME280;732;51.698;4.886;2022-10-26T01:51:42;101341.22;;;14.16;100.00
1480;BME280;732;51.698;4.886;2022-10-26T01:54:11;101364.97;;;14.23;100.00
1480;BME280;732;51.698;4.886;2022-10-26T01:56:42;101359.72;;;14.25;100.00
1480;BME280;732;51.698;4.886;2022-10-26T01:59:46;101393.28;;;14.44;100.00
1480;BME280;732;51.698;4.886;2022-10-26T02:02:53;101385.25;;;14.33;100.00
1480;BME280;732;51.698;4.886;2022-10-26T02:05:34;101387.88;;;14.32;100.00
1480;BME280;732;51.698;4.886;2022-10-26T02:08:32;101381.59;;;14.22;100.00
1480;BME280;732;51.698;4.886;2022-10-26T02:11:16;101362.97;;;14.04;100.00
1480;BME280;732;51.698;4.886;2022-10-26T02:13:54;101309.06;;;13.68;100.00
1480;BME280;732;51.698;4.886;2022-10-26T02:16:28;101362.91;;;14.00;100.00
1480;BME280;732;51.698;4.886;2022-10-26T02:19:06;101386.75;;;14.15;100.00
1480;BME280;732;51.698;4.886;2022-10-26T02:21:40;101385.00;;;14.12;100.00
1480;BME280;732;51.698;4.886;2022-10-26T02:24:12;101320.66;;;13.82;100.00
1480;BME280;732;51.698;4.886;2022-10-26T02:26:46;101372.69;;;14.10;100.00
1480;BME280;732;51.698;4.886;2022-10-26T02:29:18;101344.53;;;14.01;100.00
1480;BME280;732;51.698;4.886;2022-10-26T02:31:48;101377.22;;;14.23;100.00
1480;BME280;732;51.698;4.886;2022-10-26T02:34:24;101316.41;;;13.93;100.00
1480;BME280;732;51.698;4.886;2022-10-26T02:36:56;101306.91;;;14.04;100.00
1480;BME280;732;51.698;4.886;2022-10-26T02:39:30;101368.81;;;14.53;100.00
1480;BME280;732;51.698;4.886;2022-10-26T02:42:02;101362.63;;;14.48;100.00
1480;BME280;732;51.698;4.886;2022-10-26T02:44:38;101358.22;;;14.45;100.00
1480;BME280;732;51.698;4.886;2022-10-26T02:47:10;101356.63;;;14.59;100.00
1480;BME280;732;51.698;4.886;2022-10-26T02:49:40;101357.53;;;14.63;100.00
1480;BME280;732;51.698;4.886;2022-10-26T02:52:13;101278.19;;;14.22;100.00
1480;BME280;732;51.698;4.886;2022-10-26T02:54:50;101354.03;;;14.64;100.00
1480;BME280;732;51.698;4.886;2022-10-26T02:57:24;101353.16;;;14.63;100.00
1480;BME280;732;51.698;4.886;2022-10-26T02:59:55;101320.50;;;14.43;100.00
1480;BME280;732;51.698;4.886;2022-10-26T03:02:25;101354.91;;;14.64;100.00
1480;BME280;732;51.698;4.886;2022-10-26T03:05:08;101354.91;;;14.61;100.00
1480;BME280;732;51.698;4.886;2022-10-26T03:07:37;101358.44;;;14.68;100.00
1480;BME280;732;51.698;4.886;2022-10-26T03:10:07;101353.25;;;14.74;100.00
1480;BME280;732;51.698;4.886;2022-10-26T03:12:35;101357.69;;;14.78;100.00
1480;BME280;732;51.698;4.886;2022-10-26T03:15:05;101352.44;;;14.79;100.00
1480;BME280;732;51.698;4.886;2022-10-26T03:17:33;101356.81;;;14.79;100.00
1480;BME280;732;51.698;4.886;2022-10-26T03:20:04;101352.41;;;14.78;100.00
1480;BME280;732;51.698;4.886;2022-10-26T03:22:33;101348.91;;;14.79;100.00
1480;BME280;732;51.698;4.886;2022-10-26T03:25:02;101348.13;;;14.89;100.00
1480;BME280;732;51.698;4.886;2022-10-26T03:27:31;101346.38;;;14.89;100.00
1480;BME280;732;51.698;4.886;2022-10-26T03:30:01;101343.78;;;14.92;100.00
1480;BME280;732;51.698;4.886;2022-10-26T03:32:29;101270.66;;;14.57;100.00
1480;BME280;732;51.698;4.886;2022-10-26T03:34:57;101322.66;;;14.83;100.00
1480;BME280;732;51.698;4.886;2022-10-26T03:37:28;101348.25;;;15.01;100.00
1480;BME280;732;51.698;4.886;2022-10-26T03:39:56;101268.94;;;14.60;100.00
1480;BME280;732;51.698;4.886;2022-10-26T03:42:24;101348.28;;;15.07;100.00
1480;BME280;732;51.698;4.886;2022-10-26T03:44:53;101317.44;;;14.92;100.00
1480;BME280;732;51.698;4.886;2022-10-26T03:47:22;101345.69;;;15.11;100.00
1480;BME280;732;51.698;4.886;2022-10-26T03:49:50;101312.13;;;14.86;100.00
1480;BME280;732;51.698;4.886;2022-10-26T03:52:18;101318.34;;;14.96;100.00
1480;BME280;732;51.698;4.886;2022-10-26T03:54:48;101346.59;;;15.13;100.00
1480;BME280;732;51.698;4.886;2022-10-26T03:57:17;101327.28;;;15.14;100.00
1480;BME280;732;51.698;4.886;2022-10-26T03:59:45;101315.78;;;15.03;100.00
1480;BME280;732;51.698;4.886;2022-10-26T04:02:13;101300.81;;;14.99;100.00
1480;BME280;732;51.698;4.886;2022-10-26T04:04:42;101332.63;;;15.26;100.00
1480;BME280;732;51.698;4.886;2022-10-26T04:07:10;101335.31;;;15.32;100.00
1480;BME280;732;51.698;4.886;2022-10-26T04:09:38;101322.94;;;15.25;100.00
1480;BME280;732;51.698;4.886;2022-10-26T04:12:08;101327.41;;;15.36;100.00
1480;BME280;732;51.698;4.886;2022-10-26T04:14:37;101330.06;;;15.37;100.00
1480;BME280;732;51.698;4.886;2022-10-26T04:17:05;101324.78;;;15.36;100.00
1480;BME280;732;51.698;4.886;2022-10-26T04:19:33;101246.34;;;14.88;100.00
1480;BME280;732;51.698;4.886;2022-10-26T04:22:02;101305.41;;;15.24;100.00
1480;BME280;732;51.698;4.886;2022-10-26T04:24:31;101286.88;;;15.12;100.00
1480;BME280;732;51.698;4.886;2022-10-26T04:26:59;101300.09;;;15.18;100.00
1480;BME280;732;51.698;4.886;2022-10-26T04:29:29;101315.03;;;15.22;100.00
1480;BME280;732;51.698;4.886;2022-10-26T04:31:57;101252.53;;;14.94;100.00
1480;BME280;732;51.698;4.886;2022-10-26T04:34:25;101288.66;;;15.13;100.00
1480;BME280;732;51.698;4.886;2022-10-26T04:36:54;101280.59;;;14.92;100.00
1480;BME280;732;51.698;4.886;2022-10-26T04:39:23;101322.06;;;15.22;100.00
1480;BME280;732;51.698;4.886;2022-10-26T04:41:52;101270.06;;;14.92;100.00
1480;BME280;732;51.698;4.886;2022-10-26T04:44:21;101245.50;;;14.90;100.00
1480;BME280;732;51.698;4.886;2022-10-26T04:46:51;101281.59;;;15.08;100.00
1480;BME280;732;51.698;4.886;2022-10-26T04:49:19;101302.72;;;15.18;100.00
1480;BME280;732;51.698;4.886;2022-10-26T04:51:47;101324.69;;;15.23;100.00
1480;BME280;732;51.698;4.886;2022-10-26T04:54:15;101272.81;;;15.06;100.00
1480;BME280;732;51.698;4.886;2022-10-26T04:56:44;101316.03;;;15.38;100.00
1480;BME280;732;51.698;4.886;2022-10-26T04:59:17;101322.25;;;15.43;100.00
1480;BME280;732;51.698;4.886;2022-10-26T05:01:45;101298.41;;;15.28;100.00
1480;BME280;732;51.698;4.886;2022-10-26T05:04:15;101298.41;;;15.28;100.00
1480;BME280;732;51.698;4.886;2022-10-26T05:06:43;101329.28;;;15.44;100.00
1480;BME280;732;51.698;4.886;2022-10-26T05:09:12;101340.72;;;15.52;100.00
1480;BME280;732;51.698;4.886;2022-10-26T05:11:40;101339.78;;;15.41;100.00
1480;BME280;732;51.698;4.886;2022-10-26T05:14:08;101349.34;;;15.31;100.00
1480;BME280;732;51.698;4.886;2022-10-26T05:16:36;101334.44;;;15.32;100.00
1480;BME280;732;51.698;4.886;2022-10-26T05:19:05;101313.25;;;15.14;100.00
1480;BME280;732;51.698;4.886;2022-10-26T05:21:34;101344.97;;;15.32;100.00
1480;BME280;732;51.698;4.886;2022-10-26T05:24:04;101327.31;;;15.22;100.00
1480;BME280;732;51.698;4.886;2022-10-26T05:26:38;101291.19;;;15.01;100.00
1480;BME280;732;51.698;4.886;2022-10-26T05:29:06;101349.31;;;15.28;100.00
1480;BME280;732;51.698;4.886;2022-10-26T05:31:35;101330.84;;;15.21;100.00
1480;BME280;732;51.698;4.886;2022-10-26T05:34:03;101351.06;;;15.29;100.00
1480;BME280;732;51.698;4.886;2022-10-26T05:36:31;101349.34;;;15.30;100.00
1480;BME280;732;51.698;4.886;2022-10-26T05:39:02;101334.38;;;15.23;100.00
1480;BME280;732;51.698;4.886;2022-10-26T05:41:30;101351.13;;;15.34;100.00
1480;BME280;732;51.698;4.886;2022-10-26T05:43:59;101329.06;;;15.20;100.00
1480;BME280;732;51.698;4.886;2022-10-26T05:46:27;101335.28;;;15.28;100.00
1480;BME280;732;51.698;4.886;2022-10-26T05:48:56;101324.69;;;15.22;100.00
1480;BME280;732;51.698;4.886;2022-10-26T05:51:24;101340.53;;;15.26;100.00
1480;BME280;732;51.698;4.886;2022-10-26T05:53:52;101345.81;;;15.29;100.00
1480;BME280;732;51.698;4.886;2022-10-26T05:56:34;101289.28;;;14.82;100.00
1480;BME280;732;51.698;4.886;2022-10-26T05:59:04;101351.84;;;15.16;100.00
1480;BME280;732;51.698;4.886;2022-10-26T06:01:51;101352.69;;;15.12;100.00
1480;BME280;732;51.698;4.886;2022-10-26T06:04:31;101356.22;;;15.14;100.00
1480;BME280;732;51.698;4.886;2022-10-26T06:07:10;101352.75;;;15.15;100.00
1480;BME280;732;51.698;4.886;2022-10-26T06:09:41;101353.69;;;15.25;100.00
1480;BME280;732;51.698;4.886;2022-10-26T06:12:12;101339.59;;;15.18;100.00
1480;BME280;732;51.698;4.886;2022-10-26T06:14:46;101346.69;;;15.30;100.00
1480;BME280;732;51.698;4.886;2022-10-26T06:17:34;101340.53;;;15.31;100.00
1480;BME280;732;51.698;4.886;2022-10-26T06:20:26;101346.72;;;15.33;100.00
1480;BME280;732;51.698;4.886;2022-10-26T06:23:17;101346.69;;;15.27;100.00
1480;BME280;732;51.698;4.886;2022-10-26T06:25:58;101328.31;;;15.35;100.00
1480;BME280;732;51.698;4.886;2022-10-26T06:28:40;101329.25;;;15.41;100.00
1480;BME280;732;51.698;4.886;2022-10-26T06:31:14;101328.41;;;15.42;100.00
1480;BME280;732;51.698;4.886;2022-10-26T06:33:43;101311.56;;;15.26;100.00
1480;BME280;732;51.698;4.886;2022-10-26T06:36:21;101342.38;;;15.37;100.00
1480;BME280;732;51.698;4.886;2022-10-26T06:38:55;101343.22;;;15.37;100.00
1480;BME280;732;51.698;4.886;2022-10-26T06:41:26;101310.63;;;15.17;100.00
1480;BME280;732;51.698;4.886;2022-10-26T06:43:57;101325.56;;;15.21;100.00
1480;BME280;732;51.698;4.886;2022-10-26T06:46:35;101314.16;;;15.20;100.00
1480;BME280;732;51.698;4.886;2022-10-26T06:49:13;101363.50;;;15.43;100.00
1480;BME280;732;51.698;4.886;2022-10-26T06:51:50;101336.16;;;15.31;100.00
1480;BME280;732;51.698;4.886;2022-10-26T06:54:25;101271.81;;;14.92;100.00
1480;BME280;732;51.698;4.886;2022-10-26T06:56:57;101362.56;;;15.36;100.00
1480;BME280;732;51.698;4.886;2022-10-26T06:59:35;101343.00;;;15.07;100.00
1480;BME280;732;51.698;4.886;2022-10-26T07:02:04;101340.34;;;15.02;100.00
1480;BME280;732;51.698;4.886;2022-10-26T07:04:33;101386.97;;;15.15;100.00
1480;BME280;732;51.698;4.886;2022-10-26T07:07:02;101399.25;;;15.15;100.00
1480;BME280;732;51.698;4.886;2022-10-26T07:09:31;101318.22;;;14.78;100.00
1480;BME280;732;51.698;4.886;2022-10-26T07:12:00;101339.28;;;14.82;100.00
1480;BME280;732;51.698;4.886;2022-10-26T07:14:30;101391.28;;;15.10;100.00
1480;BME280;732;51.698;4.886;2022-10-26T07:16:58;101362.13;;;14.85;100.00
1480;BME280;732;51.698;4.886;2022-10-26T07:19:26;101370.09;;;14.94;100.00
1480;BME280;732;51.698;4.886;2022-10-26T07:21:55;101348.06;;;14.80;100.00
1480;BME280;732;51.698;4.886;2022-10-26T07:24:25;101409.69;;;15.06;100.00
1480;BME280;732;51.698;4.886;2022-10-26T07:26:54;101418.41;;;14.99;100.00
1480;BME280;732;51.698;4.886;2022-10-26T07:29:25;101414.06;;;15.05;100.00
1480;BME280;732;51.698;4.886;2022-10-26T07:31:55;101427.44;;;15.29;100.00
1480;BME280;732;51.698;4.886;2022-10-26T07:34:23;101418.81;;;15.43;100.00
1480;BME280;732;51.698;4.886;2022-10-26T07:36:52;101424.19;;;15.59;100.00
1480;BME280;732;51.698;4.886;2022-10-26T07:39:20;101385.50;;;15.48;100.00
1480;BME280;732;51.698;4.886;2022-10-26T07:41:48;101403.16;;;15.65;100.00
1480;BME280;732;51.698;4.886;2022-10-26T07:44:17;101381.13;;;15.50;100.00
1480;BME280;732;51.698;4.886;2022-10-26T07:46:45;101429.56;;;15.68;100.00
1480;BME280;732;51.698;4.886;2022-10-26T07:49:15;101406.63;;;15.57;100.00
1480;BME280;732;51.698;4.886;2022-10-26T07:51:45;101430.41;;;15.66;100.00
1480;BME280;732;51.698;4.886;2022-10-26T07:54:14;101420.75;;;15.65;100.00
1480;BME280;732;51.698;4.886;2022-10-26T07:56:42;101420.75;;;15.71;100.00
1480;BME280;732;51.698;4.886;2022-10-26T07:59:11;101438.34;;;15.70;100.00
1480;BME280;732;51.698;4.886;2022-10-26T08:01:39;101437.53;;;15.77;100.00
1480;BME280;732;51.698;4.886;2022-10-26T08:04:08;101444.56;;;15.80;100.00
1480;BME280;732;51.698;4.886;2022-10-26T08:06:38;101388.09;;;15.45;100.00
1480;BME280;732;51.698;4.886;2022-10-26T08:09:07;101463.03;;;15.84;100.00
1480;BME280;732;51.698;4.886;2022-10-26T08:11:35;101416.31;;;15.61;100.00
1480;BME280;732;51.698;4.886;2022-10-26T08:14:04;101437.47;;;15.68;100.00
1480;BME280;732;51.698;4.886;2022-10-26T08:16:32;101465.75;;;15.98;100.00
1480;BME280;732;51.698;4.886;2022-10-26T08:19:01;101457.00;;;16.02;100.00
1480;BME280;732;51.698;4.886;2022-10-26T08:21:29;101426.13;;;15.86;100.00
1480;BME280;732;51.698;4.886;2022-10-26T08:24:08;101431.50;;;16.02;100.00
1480;BME280;732;51.698;4.886;2022-10-26T08:26:36;101455.44;;;16.42;100.00
1480;BME280;732;51.698;4.886;2022-10-26T08:29:07;101446.69;;;16.47;100.00
1480;BME280;732;51.698;4.886;2022-10-26T08:31:35;101448.50;;;16.63;100.00
1480;BME280;732;51.698;4.886;2022-10-26T08:34:04;101430.91;;;16.59;100.00
1480;BME280;732;51.698;4.886;2022-10-26T08:36:32;101431.00;;;16.85;100.00
1480;BME280;732;51.698;4.886;2022-10-26T08:39:00;101438.03;;;17.02;100.00
1480;BME280;732;51.698;4.886;2022-10-26T08:41:35;101452.13;;;17.04;100.00
1480;BME280;732;51.698;4.886;2022-10-26T08:44:17;101449.50;;;17.10;100.00
1480;BME280;732;51.698;4.886;2022-10-26T08:46:52;101427.47;;;17.11;100.00
1480;BME280;732;51.698;4.886;2022-10-26T08:49:25;101424.84;;;17.07;100.00
1480;BME280;732;51.698;4.886;2022-10-26T08:51:59;101456.56;;;17.39;100.00
1480;BME280;732;51.698;4.886;2022-10-26T08:54:36;101476.88;;;17.56;100.00
1480;BME280;732;51.698;4.886;2022-10-26T08:57:16;101470.69;;;17.78;100.00
1480;BME280;732;51.698;4.886;2022-10-26T08:59:51;101441.63;;;17.69;100.00
1480;BME280;732;51.698;4.886;2022-10-26T09:02:22;101437.22;;;17.61;100.00
1480;BME280;732;51.698;4.886;2022-10-26T09:04:51;101429.28;;;17.73;100.00
1480;BME280;732;51.698;4.886;2022-10-26T09:07:39;101481.16;;;18.30;100.00
1480;BME280;732;51.698;4.886;2022-10-26T09:10:30;101482.91;;;18.37;100.00
1480;BME280;732;51.698;4.886;2022-10-26T09:13:11;101472.34;;;18.28;100.00
1480;BME280;732;51.698;4.886;2022-10-26T09:15:56;101460.81;;;18.50;100.00
1480;BME280;732;51.698;4.886;2022-10-26T09:18:38;101486.31;;;18.73;100.00
1480;BME280;732;51.698;4.886;2022-10-26T09:21:30;101431.63;;;18.62;100.00
1480;BME280;732;51.698;4.886;2022-10-26T09:24:12;101485.25;;;19.04;100.00
1480;BME280;732;51.698;4.886;2022-10-26T09:26:52;101404.28;;;18.63;100.00
1480;BME280;732;51.698;4.886;2022-10-26T09:29:27;101442.97;;;18.89;100.00
1480;BME280;732;51.698;4.886;2022-10-26T09:32:00;101463.16;;;19.05;100.00
1480;BME280;732;51.698;4.886;2022-10-26T09:34:36;101475.38;;;19.28;100.00
1480;BME280;732;51.698;4.886;2022-10-26T09:37:15;101449.75;;;19.33;100.00
1480;BME280;732;51.698;4.886;2022-10-26T09:39:54;101486.72;;;19.51;100.00
1480;BME280;732;51.698;4.886;2022-10-26T09:42:30;101490.28;;;19.50;100.00
1480;BME280;732;51.698;4.886;2022-10-26T09:45:12;101462.88;;;19.46;100.00
1480;BME280;732;51.698;4.886;2022-10-26T09:47:47;101473.53;;;19.42;100.00
1480;BME280;732;51.698;4.886;2022-10-26T09:50:23;101494.47;;;19.73;100.00
1480;BME280;732;51.698;4.886;2022-10-26T09:52:53;101505.84;;;19.89;100.00
1480;BME280;732;51.698;4.886;2022-10-26T09:55:22;101497.03;;;19.85;100.00
1480;BME280;732;51.698;4.886;2022-10-26T09:57:53;101502.13;;;20.05;100.00
1480;BME280;732;51.698;4.886;2022-10-26T10:00:26;101507.47;;;20.02;100.00
1480;BME280;732;51.698;4.886;2022-10-26T10:02:56;101536.69;;;19.99;100.00
1480;BME280;732;51.698;4.886;2022-10-26T10:05:30;101539.34;;;19.99;100.00
1480;BME280;732;51.698;4.886;2022-10-26T10:08:20;101516.44;;;19.87;100.00
1480;BME280;732;51.698;4.886;2022-10-26T10:11:01;101516.31;;;20.01;100.00
1480;BME280;732;51.698;4.886;2022-10-26T10:13:33;101540.09;;;20.19;100.00
1480;BME280;732;51.698;4.886;2022-10-26T10:16:11;101510.59;;;20.45;100.00
1480;BME280;732;51.698;4.886;2022-10-26T10:18:41;101494.00;;;20.26;100.00
1480;BME280;732;51.698;4.886;2022-10-26T10:21:10;101536.09;;;20.58;100.00
1480;BME280;732;51.698;4.886;2022-10-26T10:23:48;101503.50;;;20.45;100.00
1480;BME280;732;51.698;4.886;2022-10-26T10:26:18;101547.69;;;20.52;100.00
1480;BME280;732;51.698;4.886;2022-10-26T10:28:57;101574.88;;;20.72;100.00
1480;BME280;732;51.698;4.886;2022-10-26T10:31:32;101583.63;;;20.83;100.00
1480;BME280;732;51.698;4.886;2022-10-26T10:34:14;101593.34;;;20.84;100.00
1480;BME280;732;51.698;4.886;2022-10-26T10:36:43;101606.84;;;20.66;100.00
1480;BME280;732;51.698;4.886;2022-10-26T10:39:36;101598.19;;;20.49;100.00
1480;BME280;732;51.698;4.886;2022-10-26T10:42:16;101591.22;;;20.38;100.00
1480;BME280;732;51.698;4.886;2022-10-26T10:44:49;101601.84;;;20.35;100.00
1480;BME280;732;51.698;4.886;2022-10-26T10:47:23;101589.69;;;20.07;100.00
1480;BME280;732;51.698;4.886;2022-10-26T10:49:55;101603.72;;;20.27;100.00
1480;BME280;732;51.698;4.886;2022-10-26T10:52:28;101629.00;;;20.65;100.00
1480;BME280;732;51.698;4.886;2022-10-26T10:55:16;101629.94;;;20.60;100.00
1480;BME280;732;51.698;4.886;2022-10-26T10:58:05;101587.59;;;20.45;100.00
1480;BME280;732;51.698;4.886;2022-10-26T11:00:37;101622.78;;;20.66;100.00
1480;BME280;732;51.698;4.886;2022-10-26T11:03:38;101592.13;;;20.35;100.00
1480;BME280;732;51.698;4.886;2022-10-26T11:06:14;101615.84;;;20.55;100.00
1480;BME280;732;51.698;4.886;2022-10-26T11:08:48;101629.75;;;20.79;100.00
1480;BME280;732;51.698;4.886;2022-10-26T11:11:22;101621.78;;;20.76;100.00
1480;BME280;732;51.698;4.886;2022-10-26T11:13:56;101593.72;;;20.53;100.00
1480;BME280;732;51.698;4.886;2022-10-26T11:16:33;101604.91;;;20.80;100.00
1480;BME280;732;51.698;4.886;2022-10-26T11:19:14;101598.75;;;20.78;100.00
1480;BME280;732;51.698;4.886;2022-10-26T11:21:49;101573.91;;;20.81;100.00
1480;BME280;732;51.698;4.886;2022-10-26T11:24:23;101589.81;;;20.84;100.00
1480;BME280;732;51.698;4.886;2022-10-26T11:26:58;101618.06;;;20.92;100.00
1480;BME280;732;51.698;4.886;2022-10-26T11:29:35;101603.16;;;20.81;100.00
1480;BME280;732;51.698;4.886;2022-10-26T11:32:14;101616.22;;;20.99;100.00
1480;BME280;732;51.698;4.886;2022-10-26T11:34:53;101633.50;;;21.35;100.00
1480;BME280;732;51.698;4.886;2022-10-26T11:37:31;101571.06;;;20.96;100.00
1480;BME280;732;51.698;4.886;2022-10-26T11:40:19;101624.94;;;21.13;100.00
1480;BME280;732;51.698;4.886;2022-10-26T11:42:56;101616.75;;;21.30;100.00
1480;BME280;732;51.698;4.886;2022-10-26T11:45:29;101646.66;;;21.45;100.00
1480;BME280;732;51.698;4.886;2022-10-26T11:48:05;101616.78;;;21.28;100.00
1480;BME280;732;51.698;4.886;2022-10-26T11:50:44;101650.03;;;21.58;100.00
1480;BME280;732;51.698;4.886;2022-10-26T11:53:16;101625.66;;;21.26;100.00
1480;BME280;732;51.698;4.886;2022-10-26T11:55:48;101646.53;;;21.56;100.00
1480;BME280;732;51.698;4.886;2022-10-26T11:58:17;101647.97;;;21.79;100.00
1480;BME280;732;51.698;4.886;2022-10-26T12:00:53;101643.25;;;21.98;100.00
1480;BME280;732;51.698;4.886;2022-10-26T12:03:27;101633.34;;;22.06;100.00
1480;BME280;732;51.698;4.886;2022-10-26T12:05:58;101635.03;;;22.12;100.00
1480;BME280;732;51.698;4.886;2022-10-26T12:08:29;101630.66;;;22.08;100.00
1480;BME280;732;51.698;4.886;2022-10-26T12:11:06;101629.88;;;22.03;100.00
1480;BME280;732;51.698;4.886;2022-10-26T12:13:41;101614.09;;;21.92;100.00
1480;BME280;732;51.698;4.886;2022-10-26T12:16:20;101611.41;;;21.91;100.00
1480;BME280;732;51.698;4.886;2022-10-26T12:18:57;101637.75;;;22.09;100.00
1480;BME280;732;51.698;4.886;2022-10-26T12:21:30;101637.50;;;22.24;100.00
1480;BME280;732;51.698;4.886;2022-10-26T12:24:01;101611.88;;;22.17;100.00
1480;BME280;732;51.698;4.886;2022-10-26T12:26:38;101617.50;;;22.50;100.00
1480;BME280;732;51.698;4.886;2022-10-26T12:32:55;101629.59;;;22.71;100.00
1480;BME280;732;51.698;4.886;2022-10-26T12:35:41;101598.34;;;22.29;100.00
1480;BME280;732;51.698;4.886;2022-10-26T12:38:56;101621.69;;;22.65;100.00
1480;BME280;732;51.698;4.886;2022-10-26T12:41:28;101620.38;;;22.87;100.00
1480;BME280;732;51.698;4.886;2022-10-26T12:44:00;101627.97;;;23.05;100.00
1480;BME280;732;51.698;4.886;2022-10-26T12:46:38;101629.97;;;23.40;100.00
1480;BME280;732;51.698;4.886;2022-10-26T12:49:57;101626.53;;;23.35;100.00
1480;BME280;732;51.698;4.886;2022-10-26T12:52:48;101613.59;;;23.14;100.00
1480;BME280;732;51.698;4.886;2022-10-26T12:55:49;101619.88;;;23.11;100.00
1480;BME280;732;51.698;4.886;2022-10-26T12:58:51;101629.16;;;23.36;100.00
1480;BME280;732;51.698;4.886;2022-10-26T13:02:19;101643.47;;;23.72;100.00
1480;BME280;732;51.698;4.886;2022-10-26T13:05:28;101631.19;;;23.65;100.00
1480;BME280;732;51.698;4.886;2022-10-26T13:08:03;101640.25;;;23.56;100.00
1480;BME280;732;51.698;4.886;2022-10-26T13:10:34;101629.19;;;23.33;100.00
1480;BME280;732;51.698;4.886;2022-10-26T13:13:07;101637.03;;;23.41;100.00
1480;BME280;732;51.698;4.886;2022-10-26T13:15:39;101640.63;;;23.40;100.00
1480;BME280;732;51.698;4.886;2022-10-26T13:18:12;101647.03;;;23.33;100.00
1480;BME280;732;51.698;4.886;2022-10-26T13:20:53;101646.66;;;23.49;100.00
1480;BME280;732;51.698;4.886;2022-10-26T13:23:27;101638.47;;;23.57;100.00
1480;BME280;732;51.698;4.886;2022-10-26T13:26:06;101650.28;;;23.85;100.00
1480;BME280;732;51.698;4.886;2022-10-26T13:28:47;101653.41;;;24.04;100.00
1480;BME280;732;51.698;4.886;2022-10-26T13:31:52;101656.13;;;24.02;100.00
1480;BME280;732;51.698;4.886;2022-10-26T13:34:25;101637.69;;;23.90;100.00
1480;BME280;732;51.698;4.886;2022-10-26T13:37:06;101641.91;;;24.00;100.00
1480;BME280;732;51.698;4.886;2022-10-26T13:39:42;101655.81;;;24.16;100.00
1480;BME280;732;51.698;4.886;2022-10-26T13:42:15;101632.44;;;23.87;100.00
1480;BME280;732;51.698;4.886;2022-10-26T13:44:51;101631.75;;;23.78;100.00
1480;BME280;732;51.698;4.886;2022-10-26T13:47:26;101662.66;;;23.89;100.00
1480;BME280;732;51.698;4.886;2022-10-26T13:49:59;101655.66;;;23.82;100.00
1480;BME280;732;51.698;4.886;2022-10-26T13:52:34;101668.38;;;23.73;100.00